Terminal Aerodrome Forecast
Issued by NWS

Home | Current Version | Previous Version | Text Only | Print | Product List | Glossary On
Versions: 1 2 3 4 5 6 7 8 9 10 11 12 13 14 15 16 17 18 19 20 21 22 23 24 25 26 27 28 29 30 31 32 33 34 35 36 37 38 39 40 41
000
FTAK31 PANC 282038 AAA
TAFASN
TAF AMD
PASN 282038Z 2821/2918 01019KT P6SM VCSH SCT008 OVC016
      TEMPO 2821/2824 1 1/2SM -SHSN BR BKN008
     FM290000 01016KT P6SM FEW008 BKN020
     FM290900 36012KT P6SM SCT008 OVC015=

USA.gov is the U.S. government's official web portal to all federal, state and local government web resources and services.